sensor_id;sensor_type;location;lat;lon;timestamp;pressure;altitude;pressure_sealevel;temperature;humidity
48824;BME280;34640;53.590;10.054;2023-02-01T00:00:50;100633.84;;;5.73;100.00
48824;BME280;34640;53.590;10.054;2023-02-01T00:03:24;100641.72;;;5.75;100.00
48824;BME280;34640;53.590;10.054;2023-02-01T00:05:59;100636.44;;;5.73;100.00
48824;BME280;34640;53.590;10.054;2023-02-01T00:08:32;100662.84;;;5.81;100.00
48824;BME280;34640;53.590;10.054;2023-02-01T00:11:10;100661.53;;;5.86;100.00
48824;BME280;34640;53.590;10.054;2023-02-01T00:13:44;100639.47;;;5.79;100.00
48824;BME280;34640;53.590;10.054;2023-02-01T00:16:19;100641.66;;;5.63;100.00
48824;BME280;34640;53.590;10.054;2023-02-01T00:18:57;100638.31;;;5.64;100.00
48824;BME280;34640;53.590;10.054;2023-02-01T00:21:31;100636.81;;;5.56;100.00
48824;BME280;34640;53.590;10.054;2023-02-01T00:24:06;100631.53;;;5.55;100.00
48824;BME280;34640;53.590;10.054;2023-02-01T00:26:42;100625.34;;;5.52;100.00
48824;BME280;34640;53.590;10.054;2023-02-01T00:29:18;100631.84;;;5.47;100.00
48824;BME280;34640;53.590;10.054;2023-02-01T00:31:52;100622.66;;;5.51;100.00
48824;BME280;34640;53.590;10.054;2023-02-01T00:34:26;100634.06;;;5.43;100.00
48824;BME280;34640;53.590;10.054;2023-02-01T00:37:00;100638.47;;;5.44;100.00
48824;BME280;34640;53.590;10.054;2023-02-01T00:39:33;100628.47;;;5.48;100.00
48824;BME280;34640;53.590;10.054;2023-02-01T00:42:08;100632.75;;;5.48;100.00
48824;BME280;34640;53.590;10.054;2023-02-01T00:44:43;100632.84;;;5.49;100.00
48824;BME280;34640;53.590;10.054;2023-02-01T00:47:16;100630.81;;;5.45;100.00
48824;BME280;34640;53.590;10.054;2023-02-01T00:49:51;100632.06;;;5.50;100.00
48824;BME280;34640;53.590;10.054;2023-02-01T00:52:25;100623.44;;;5.62;100.00
48824;BME280;34640;53.590;10.054;2023-02-01T00:54:59;100628.09;;;5.66;100.00
48824;BME280;34640;53.590;10.054;2023-02-01T00:57:34;100621.47;;;5.69;100.00
48824;BME280;34640;53.590;10.054;2023-02-01T01:00:09;100627.09;;;5.75;100.00
48824;BME280;34640;53.590;10.054;2023-02-01T01:02:43;100627.44;;;5.80;100.00
48824;BME280;34640;53.590;10.054;2023-02-01T01:05:16;100624.69;;;5.89;100.00
48824;BME280;34640;53.590;10.054;2023-02-01T01:07:50;100621.88;;;5.86;100.00
48824;BME280;34640;53.590;10.054;2023-02-01T01:10:24;100624.19;;;5.82;100.00
48824;BME280;34640;53.590;10.054;2023-02-01T01:12:59;100617.22;;;5.81;100.00
48824;BME280;34640;53.590;10.054;2023-02-01T01:15:36;100608.56;;;5.81;100.00
48824;BME280;34640;53.590;10.054;2023-02-01T01:18:10;100607.38;;;5.88;100.00
48824;BME280;34640;53.590;10.054;2023-02-01T01:20:43;100612.81;;;5.91;100.00
48824;BME280;34640;53.590;10.054;2023-02-01T01:23:17;100609.19;;;5.89;100.00
48824;BME280;34640;53.590;10.054;2023-02-01T01:25:51;100611.53;;;5.86;100.00
48824;BME280;34640;53.590;10.054;2023-02-01T01:28:26;100611.38;;;5.84;100.00
48824;BME280;34640;53.590;10.054;2023-02-01T01:31:00;100601.59;;;5.80;100.00
48824;BME280;34640;53.590;10.054;2023-02-01T01:33:34;100598.25;;;5.81;100.00
48824;BME280;34640;53.590;10.054;2023-02-01T01:36:09;100588.91;;;5.83;100.00
48824;BME280;34640;53.590;10.054;2023-02-01T01:38:43;100588.28;;;5.86;100.00
48824;BME280;34640;53.590;10.054;2023-02-01T01:41:19;100591.38;;;5.81;100.00
48824;BME280;34640;53.590;10.054;2023-02-01T01:43:56;100577.47;;;5.79;100.00
48824;BME280;34640;53.590;10.054;2023-02-01T01:46:32;100577.34;;;5.78;100.00
48824;BME280;34640;53.590;10.054;2023-02-01T01:49:09;100571.09;;;5.86;100.00
48824;BME280;34640;53.590;10.054;2023-02-01T01:51:47;100565.63;;;5.93;100.00
48824;BME280;34640;53.590;10.054;2023-02-01T01:54:25;100565.06;;;5.97;100.00
48824;BME280;34640;53.590;10.054;2023-02-01T01:57:03;100562.25;;;5.94;100.00
48824;BME280;34640;53.590;10.054;2023-02-01T01:59:41;100565.94;;;5.98;100.00
48824;BME280;34640;53.590;10.054;2023-02-01T02:02:19;100563.81;;;5.92;100.00
48824;BME280;34640;53.590;10.054;2023-02-01T02:04:53;100570.13;;;5.96;100.00
48824;BME280;34640;53.590;10.054;2023-02-01T02:07:30;100557.53;;;6.00;100.00
48824;BME280;34640;53.590;10.054;2023-02-01T02:10:08;100550.88;;;6.04;100.00
48824;BME280;34640;53.590;10.054;2023-02-01T02:12:46;100554.72;;;5.97;100.00
48824;BME280;34640;53.590;10.054;2023-02-01T02:15:22;100548.53;;;5.95;100.00
48824;BME280;34640;53.590;10.054;2023-02-01T02:18:00;100546.19;;;5.98;100.00
48824;BME280;34640;53.590;10.054;2023-02-01T02:21:01;100534.94;;;5.98;100.00
48824;BME280;34640;53.590;10.054;2023-02-01T02:27:03;100519.31;;;5.96;100.00
48824;BME280;34640;53.590;10.054;2023-02-01T02:30:08;100523.59;;;5.96;100.00
48824;BME280;34640;53.590;10.054;2023-02-01T02:33:31;100522.91;;;5.98;100.00
48824;BME280;34640;53.590;10.054;2023-02-01T02:36:17;100520.34;;;5.98;100.00
48824;BME280;34640;53.590;10.054;2023-02-01T02:39:00;100527.19;;;5.98;100.00
48824;BME280;34640;53.590;10.054;2023-02-01T02:41:45;100519.44;;;5.98;100.00
48824;BME280;34640;53.590;10.054;2023-02-01T02:44:45;100517.53;;;5.95;100.00
48824;BME280;34640;53.590;10.054;2023-02-01T02:47:44;100505.44;;;5.84;100.00
48824;BME280;34640;53.590;10.054;2023-02-01T02:50:25;100514.56;;;5.79;100.00
48824;BME280;34640;53.590;10.054;2023-02-01T02:53:21;100499.94;;;5.79;100.00
48824;BME280;34640;53.590;10.054;2023-02-01T02:56:16;100488.84;;;5.69;100.00
48824;BME280;34640;53.590;10.054;2023-02-01T02:59:11;100486.81;;;5.65;100.00
48824;BME280;34640;53.590;10.054;2023-02-01T03:02:04;100487.72;;;5.77;100.00
48824;BME280;34640;53.590;10.054;2023-02-01T03:04:56;100472.53;;;5.58;100.00
48824;BME280;34640;53.590;10.054;2023-02-01T03:07:53;100471.84;;;5.61;100.00
48824;BME280;34640;53.590;10.054;2023-02-01T03:10:35;100476.78;;;5.58;100.00
48824;BME280;34640;53.590;10.054;2023-02-01T03:13:13;100482.63;;;5.55;100.00
48824;BME280;34640;53.590;10.054;2023-02-01T03:15:53;100475.34;;;5.73;100.00
48824;BME280;34640;53.590;10.054;2023-02-01T03:18:35;100471.06;;;5.50;100.00
48824;BME280;34640;53.590;10.054;2023-02-01T03:21:13;100465.69;;;5.47;100.00
48824;BME280;34640;53.590;10.054;2023-02-01T03:23:52;100449.97;;;5.44;100.00
48824;BME280;34640;53.590;10.054;2023-02-01T03:26:29;100446.00;;;5.37;100.00
48824;BME280;34640;53.590;10.054;2023-02-01T03:29:10;100457.09;;;5.36;100.00
48824;BME280;34640;53.590;10.054;2023-02-01T03:31:45;100466.53;;;5.36;100.00
48824;BME280;34640;53.590;10.054;2023-02-01T03:34:19;100459.25;;;5.30;100.00
48824;BME280;34640;53.590;10.054;2023-02-01T03:36:58;100458.44;;;5.31;100.00
48824;BME280;34640;53.590;10.054;2023-02-01T03:39:39;100468.00;;;5.32;100.00
48824;BME280;34640;53.590;10.054;2023-02-01T03:42:16;100454.16;;;5.20;100.00
48824;BME280;34640;53.590;10.054;2023-02-01T03:44:56;100452.78;;;5.13;100.00
48824;BME280;34640;53.590;10.054;2023-02-01T03:47:35;100450.09;;;5.12;100.00
48824;BME280;34640;53.590;10.054;2023-02-01T03:50:14;100456.16;;;5.12;100.00
48824;BME280;34640;53.590;10.054;2023-02-01T03:52:53;100438.78;;;5.10;100.00
48824;BME280;34640;53.590;10.054;2023-02-01T03:55:31;100446.50;;;5.10;100.00
48824;BME280;34640;53.590;10.054;2023-02-01T03:58:08;100446.28;;;5.07;100.00
48824;BME280;34640;53.590;10.054;2023-02-01T04:00:45;100435.50;;;5.01;100.00
48824;BME280;34640;53.590;10.054;2023-02-01T04:03:19;100434.44;;;4.99;100.00
48824;BME280;34640;53.590;10.054;2023-02-01T04:05:54;100421.69;;;5.00;100.00
48824;BME280;34640;53.590;10.054;2023-02-01T04:08:28;100428.78;;;5.03;100.00
48824;BME280;34640;53.590;10.054;2023-02-01T04:11:03;100420.25;;;5.04;100.00
48824;BME280;34640;53.590;10.054;2023-02-01T04:13:36;100416.22;;;5.07;100.00
48824;BME280;34640;53.590;10.054;2023-02-01T04:16:10;100423.94;;;5.07;100.00
48824;BME280;34640;53.590;10.054;2023-02-01T04:18:44;100421.16;;;5.04;100.00
48824;BME280;34640;53.590;10.054;2023-02-01T04:21:18;100419.41;;;4.93;100.00
48824;BME280;34640;53.590;10.054;2023-02-01T04:23:53;100415.94;;;4.93;100.00
48824;BME280;34640;53.590;10.054;2023-02-01T04:26:28;100403.50;;;4.99;100.00
48824;BME280;34640;53.590;10.054;2023-02-01T04:29:02;100403.63;;;5.00;100.00
48824;BME280;34640;53.590;10.054;2023-02-01T04:31:36;100392.16;;;4.97;100.00
48824;BME280;34640;53.590;10.054;2023-02-01T04:34:10;100396.69;;;4.99;100.00
48824;BME280;34640;53.590;10.054;2023-02-01T04:36:44;100388.13;;;4.88;100.00
48824;BME280;34640;53.590;10.054;2023-02-01T04:39:18;100397.66;;;4.89;100.00
48824;BME280;34640;53.590;10.054;2023-02-01T04:41:53;100394.84;;;4.98;100.00
48824;BME280;34640;53.590;10.054;2023-02-01T04:44:27;100387.09;;;4.86;100.00
48824;BME280;34640;53.590;10.054;2023-02-01T04:47:01;100384.88;;;4.91;100.00
48824;BME280;34640;53.590;10.054;2023-02-01T04:49:35;100391.94;;;4.94;100.00
48824;BME280;34640;53.590;10.054;2023-02-01T04:52:09;100389.56;;;4.85;100.00
48824;BME280;34640;53.590;10.054;2023-02-01T04:54:42;100392.69;;;4.81;100.00
48824;BME280;34640;53.590;10.054;2023-02-01T04:57:18;100390.41;;;4.74;100.00
48824;BME280;34640;53.590;10.054;2023-02-01T04:59:51;100393.50;;;4.80;100.00
48824;BME280;34640;53.590;10.054;2023-02-01T05:02:25;100383.69;;;4.76;100.00
48824;BME280;34640;53.590;10.054;2023-02-01T05:04:58;100386.94;;;4.73;100.00
48824;BME280;34640;53.590;10.054;2023-02-01T05:07:34;100406.28;;;4.78;100.00
48824;BME280;34640;53.590;10.054;2023-02-01T05:10:08;100400.72;;;4.74;100.00
48824;BME280;34640;53.590;10.054;2023-02-01T05:12:44;100416.41;;;4.65;100.00
48824;BME280;34640;53.590;10.054;2023-02-01T05:15:35;100399.59;;;4.58;100.00
48824;BME280;34640;53.590;10.054;2023-02-01T05:18:09;100404.22;;;4.41;100.00
48824;BME280;34640;53.590;10.054;2023-02-01T05:20:43;100397.47;;;4.43;100.00
48824;BME280;34640;53.590;10.054;2023-02-01T05:23:17;100404.13;;;4.29;100.00
48824;BME280;34640;53.590;10.054;2023-02-01T05:25:51;100404.44;;;4.22;100.00
48824;BME280;34640;53.590;10.054;2023-02-01T05:28:26;100399.94;;;3.97;100.00
48824;BME280;34640;53.590;10.054;2023-02-01T05:31:00;100379.88;;;3.93;100.00
48824;BME280;34640;53.590;10.054;2023-02-01T05:33:34;100368.44;;;3.80;100.00
48824;BME280;34640;53.590;10.054;2023-02-01T05:36:08;100361.63;;;3.80;100.00
48824;BME280;34640;53.590;10.054;2023-02-01T05:38:41;100368.09;;;3.75;100.00
48824;BME280;34640;53.590;10.054;2023-02-01T05:41:15;100392.53;;;3.80;100.00
48824;BME280;34640;53.590;10.054;2023-02-01T05:43:50;100394.63;;;3.74;100.00
48824;BME280;34640;53.590;10.054;2023-02-01T05:46:24;100399.41;;;3.70;100.00
48824;BME280;34640;53.590;10.054;2023-02-01T05:48:58;100414.19;;;3.72;100.00
48824;BME280;34640;53.590;10.054;2023-02-01T05:51:32;100405.47;;;3.60;100.00
48824;BME280;34640;53.590;10.054;2023-02-01T05:54:06;100416.53;;;3.59;100.00
48824;BME280;34640;53.590;10.054;2023-02-01T05:56:39;100410.38;;;3.57;100.00
48824;BME280;34640;53.590;10.054;2023-02-01T05:59:15;100406.00;;;3.56;100.00
48824;BME280;34640;53.590;10.054;2023-02-01T06:01:49;100408.56;;;3.56;100.00
48824;BME280;34640;53.590;10.054;2023-02-01T06:04:23;100409.75;;;3.49;100.00
48824;BME280;34640;53.590;10.054;2023-02-01T06:06:56;100405.63;;;3.51;100.00
48824;BME280;34640;53.590;10.054;2023-02-01T06:09:31;100400.25;;;3.48;100.00
48824;BME280;34640;53.590;10.054;2023-02-01T06:12:05;100391.88;;;3.41;100.00
48824;BME280;34640;53.590;10.054;2023-02-01T06:14:40;100393.91;;;3.45;100.00
48824;BME280;34640;53.590;10.054;2023-02-01T06:17:15;100393.78;;;3.43;100.00
48824;BME280;34640;53.590;10.054;2023-02-01T06:19:49;100392.38;;;3.47;100.00
48824;BME280;34640;53.590;10.054;2023-02-01T06:22:23;100394.69;;;3.54;100.00
48824;BME280;34640;53.590;10.054;2023-02-01T06:24:57;100401.03;;;3.47;100.00
48824;BME280;34640;53.590;10.054;2023-02-01T06:27:31;100401.13;;;3.49;100.00
48824;BME280;34640;53.590;10.054;2023-02-01T06:30:08;100383.38;;;3.52;100.00
48824;BME280;34640;53.590;10.054;2023-02-01T06:32:42;100380.78;;;3.52;100.00
48824;BME280;34640;53.590;10.054;2023-02-01T06:35:16;100387.31;;;3.58;100.00
48824;BME280;34640;53.590;10.054;2023-02-01T06:37:50;100385.41;;;3.56;100.00
48824;BME280;34640;53.590;10.054;2023-02-01T06:40:24;100383.31;;;3.62;100.00
48824;BME280;34640;53.590;10.054;2023-02-01T06:42:58;100390.63;;;3.67;100.00
48824;BME280;34640;53.590;10.054;2023-02-01T06:45:33;100395.22;;;3.82;100.00
48824;BME280;34640;53.590;10.054;2023-02-01T06:48:07;100398.56;;;3.81;100.00
48824;BME280;34640;53.590;10.054;2023-02-01T06:50:44;100387.19;;;3.89;100.00
48824;BME280;34640;53.590;10.054;2023-02-01T06:53:17;100382.03;;;3.89;100.00
48824;BME280;34640;53.590;10.054;2023-02-01T06:55:52;100390.16;;;3.93;100.00
48824;BME280;34640;53.590;10.054;2023-02-01T06:58:28;100383.56;;;3.97;100.00
48824;BME280;34640;53.590;10.054;2023-02-01T07:01:06;100384.47;;;3.97;100.00
48824;BME280;34640;53.590;10.054;2023-02-01T07:03:40;100383.69;;;3.98;100.00
48824;BME280;34640;53.590;10.054;2023-02-01T07:06:14;100385.50;;;3.99;100.00
48824;BME280;34640;53.590;10.054;2023-02-01T07:08:48;100397.72;;;4.02;100.00
48824;BME280;34640;53.590;10.054;2023-02-01T07:11:23;100397.28;;;4.08;100.00
48824;BME280;34640;53.590;10.054;2023-02-01T07:13:57;100395.69;;;4.20;100.00
48824;BME280;34640;53.590;10.054;2023-02-01T07:16:32;100407.25;;;4.25;100.00
48824;BME280;34640;53.590;10.054;2023-02-01T07:19:06;100411.97;;;4.30;100.00
48824;BME280;34640;53.590;10.054;2023-02-01T07:21:40;100405.66;;;4.37;100.00
48824;BME280;34640;53.590;10.054;2023-02-01T07:24:13;100393.78;;;4.39;100.00
48824;BME280;34640;53.590;10.054;2023-02-01T07:26:48;100394.47;;;4.48;100.00
48824;BME280;34640;53.590;10.054;2023-02-01T07:29:23;100388.06;;;4.43;100.00
48824;BME280;34640;53.590;10.054;2023-02-01T07:31:58;100387.16;;;4.43;100.00
48824;BME280;34640;53.590;10.054;2023-02-01T07:34:32;100384.06;;;4.47;100.00
48824;BME280;34640;53.590;10.054;2023-02-01T07:37:07;100391.34;;;4.52;100.00
48824;BME280;34640;53.590;10.054;2023-02-01T07:39:40;100389.72;;;4.65;100.00
48824;BME280;34640;53.590;10.054;2023-02-01T07:42:14;100392.41;;;4.66;100.00
48824;BME280;34640;53.590;10.054;2023-02-01T07:44:48;100399.69;;;4.60;100.00
48824;BME280;34640;53.590;10.054;2023-02-01T07:47:23;100406.81;;;4.52;100.00
48824;BME280;34640;53.590;10.054;2023-02-01T07:49:57;100389.44;;;4.50;100.00
48824;BME280;34640;53.590;10.054;2023-02-01T07:52:31;100396.88;;;4.57;100.00
48824;BME280;34640;53.590;10.054;2023-02-01T07:55:06;100407.09;;;4.55;100.00
48824;BME280;34640;53.590;10.054;2023-02-01T07:57:40;100410.25;;;4.63;100.00
48824;BME280;34640;53.590;10.054;2023-02-01T08:00:14;100408.00;;;4.68;100.00
48824;BME280;34640;53.590;10.054;2023-02-01T08:03:07;100412.38;;;4.69;100.00
48824;BME280;34640;53.590;10.054;2023-02-01T08:05:41;100403.44;;;4.75;100.00
48824;BME280;34640;53.590;10.054;2023-02-01T08:08:15;100407.75;;;4.86;100.00
48824;BME280;34640;53.590;10.054;2023-02-01T08:10:48;100407.41;;;4.94;100.00
48824;BME280;34640;53.590;10.054;2023-02-01T08:13:23;100406.06;;;4.99;100.00
48824;BME280;34640;53.590;10.054;2023-02-01T08:15:58;100419.56;;;5.06;100.00
48824;BME280;34640;53.590;10.054;2023-02-01T08:18:33;100429.34;;;5.10;100.00
48824;BME280;34640;53.590;10.054;2023-02-01T08:21:09;100431.38;;;5.14;100.00
48824;BME280;34640;53.590;10.054;2023-02-01T08:23:44;100435.06;;;5.18;100.00
48824;BME280;34640;53.590;10.054;2023-02-01T08:26:19;100437.34;;;5.25;100.00
48824;BME280;34640;53.590;10.054;2023-02-01T08:28:54;100436.13;;;5.32;100.00
48824;BME280;34640;53.590;10.054;2023-02-01T08:31:29;100434.66;;;5.35;100.00
48824;BME280;34640;53.590;10.054;2023-02-01T08:34:04;100441.97;;;5.52;100.00
48824;BME280;34640;53.590;10.054;2023-02-01T08:36:38;100434.47;;;5.67;100.00
48824;BME280;34640;53.590;10.054;2023-02-01T08:39:14;100438.84;;;5.68;100.00
48824;BME280;34640;53.590;10.054;2023-02-01T08:41:48;100428.06;;;5.74;100.00
48824;BME280;34640;53.590;10.054;2023-02-01T08:44:42;100428.75;;;5.71;100.00
48824;BME280;34640;53.590;10.054;2023-02-01T08:47:15;100416.50;;;5.57;100.00
48824;BME280;34640;53.590;10.054;2023-02-01T08:49:50;100419.97;;;5.58;100.00
48824;BME280;34640;53.590;10.054;2023-02-01T08:52:25;100399.66;;;5.50;100.00
48824;BME280;34640;53.590;10.054;2023-02-01T08:54:59;100411.22;;;5.44;100.00
48824;BME280;34640;53.590;10.054;2023-02-01T08:57:34;100410.19;;;5.42;100.00
48824;BME280;34640;53.590;10.054;2023-02-01T09:00:10;100405.94;;;5.31;100.00
48824;BME280;34640;53.590;10.054;2023-02-01T09:02:44;100399.53;;;5.26;100.00
48824;BME280;34640;53.590;10.054;2023-02-01T09:05:20;100405.59;;;5.26;100.00
48824;BME280;34640;53.590;10.054;2023-02-01T09:07:55;100405.81;;;5.41;100.00
48824;BME280;34640;53.590;10.054;2023-02-01T09:10:29;100397.41;;;5.55;100.00
48824;BME280;34640;53.590;10.054;2023-02-01T09:13:07;100399.97;;;5.78;100.00
48824;BME280;34640;53.590;10.054;2023-02-01T09:15:41;100401.56;;;5.88;100.00
48824;BME280;34640;53.590;10.054;2023-02-01T09:18:15;100384.63;;;5.92;100.00
48824;BME280;34640;53.590;10.054;2023-02-01T09:20:50;100385.81;;;5.85;100.00
48824;BME280;34640;53.590;10.054;2023-02-01T09:23:24;100381.44;;;5.84;100.00
48824;BME280;34640;53.590;10.054;2023-02-01T09:25:59;100391.66;;;6.06;100.00
48824;BME280;34640;53.590;10.054;2023-02-01T09:28:33;100388.00;;;6.27;100.00
48824;BME280;34640;53.590;10.054;2023-02-01T09:31:07;100374.63;;;6.33;100.00
48824;BME280;34640;53.590;10.054;2023-02-01T09:33:40;100391.09;;;6.47;100.00
48824;BME280;34640;53.590;10.054;2023-02-01T09:36:16;100398.31;;;6.64;100.00
48824;BME280;34640;53.590;10.054;2023-02-01T09:38:52;100390.66;;;6.65;100.00
48824;BME280;34640;53.590;10.054;2023-02-01T09:41:35;100386.66;;;6.57;100.00
48824;BME280;34640;53.590;10.054;2023-02-01T09:44:21;100389.38;;;6.59;100.00
48824;BME280;34640;53.590;10.054;2023-02-01T09:47:11;100404.22;;;6.50;100.00
48824;BME280;34640;53.590;10.054;2023-02-01T09:49:51;100391.13;;;6.35;100.00
48824;BME280;34640;53.590;10.054;2023-02-01T09:52:32;100386.34;;;6.53;100.00
48824;BME280;34640;53.590;10.054;2023-02-01T09:55:13;100393.16;;;6.39;100.00
48824;BME280;34640;53.590;10.054;2023-02-01T09:57:53;100385.38;;;6.39;100.00
48824;BME280;34640;53.590;10.054;2023-02-01T10:00:30;100394.44;;;6.57;100.00
48824;BME280;34640;53.590;10.054;2023-02-01T10:03:11;100407.69;;;6.62;100.00
48824;BME280;34640;53.590;10.054;2023-02-01T10:09:05;100397.13;;;6.84;100.00
48824;BME280;34640;53.590;10.054;2023-02-01T10:12:12;100389.66;;;6.88;100.00
48824;BME280;34640;53.590;10.054;2023-02-01T10:14:56;100391.44;;;6.89;100.00
48824;BME280;34640;53.590;10.054;2023-02-01T10:17:45;100392.56;;;6.93;100.00
48824;BME280;34640;53.590;10.054;2023-02-01T10:20:26;100388.50;;;6.96;100.00
48824;BME280;34640;53.590;10.054;2023-02-01T10:23:08;100386.72;;;7.09;100.00
48824;BME280;34640;53.590;10.054;2023-02-01T10:26:14;100394.53;;;7.22;100.00
48824;BME280;34640;53.590;10.054;2023-02-01T10:28:52;100399.66;;;7.09;100.00
48824;BME280;34640;53.590;10.054;2023-02-01T10:31:30;100381.19;;;6.91;100.00
48824;BME280;34640;53.590;10.054;2023-02-01T10:34:14;100375.03;;;6.89;100.00
48824;BME280;34640;53.590;10.054;2023-02-01T10:36:54;100383.09;;;6.93;100.00
48824;BME280;34640;53.590;10.054;2023-02-01T10:39:28;100390.44;;;6.87;100.00
48824;BME280;34640;53.590;10.054;2023-02-01T10:42:03;100385.88;;;6.83;100.00
48824;BME280;34640;53.590;10.054;2023-02-01T10:44:42;100377.94;;;6.68;100.00
48824;BME280;34640;53.590;10.054;2023-02-01T10:47:18;100353.94;;;6.58;100.00
48824;BME280;34640;53.590;10.054;2023-02-01T10:49:56;100369.00;;;6.27;100.00
48824;BME280;34640;53.590;10.054;2023-02-01T10:52:38;100365.94;;;6.07;100.00
48824;BME280;34640;53.590;10.054;2023-02-01T10:55:35;100361.56;;;5.95;100.00
48824;BME280;34640;53.590;10.054;2023-02-01T10:58:17;100360.47;;;5.91;100.00
48824;BME280;34640;53.590;10.054;2023-02-01T11:00:53;100356.38;;;5.83;100.00
48824;BME280;34640;53.590;10.054;2023-02-01T11:03:34;100352.91;;;5.82;100.00
48824;BME280;34640;53.590;10.054;2023-02-01T11:06:24;100337.41;;;5.82;100.00
48824;BME280;34640;53.590;10.054;2023-02-01T11:09:09;100302.84;;;5.69;100.00
48824;BME280;34640;53.590;10.054;2023-02-01T11:11:57;100327.31;;;5.62;100.00
48824;BME280;34640;53.590;10.054;2023-02-01T11:14:36;100340.91;;;5.60;100.00
48824;BME280;34640;53.590;10.054;2023-02-01T11:17:21;100316.34;;;5.41;100.00
48824;BME280;34640;53.590;10.054;2023-02-01T11:19:59;100302.00;;;5.33;100.00
48824;BME280;34640;53.590;10.054;2023-02-01T11:22:34;100315.91;;;5.35;100.00
48824;BME280;34640;53.590;10.054;2023-02-01T11:25:09;100323.88;;;5.38;100.00
48824;BME280;34640;53.590;10.054;2023-02-01T11:27:47;100312.75;;;5.39;100.00
48824;BME280;34640;53.590;10.054;2023-02-01T11:30:31;100309.97;;;5.48;100.00
48824;BME280;34640;53.590;10.054;2023-02-01T11:33:07;100304.97;;;5.63;100.00
48824;BME280;34640;53.590;10.054;2023-02-01T11:35:47;100303.84;;;5.71;100.00
48824;BME280;34640;53.590;10.054;2023-02-01T11:38:26;100293.56;;;5.84;100.00
48824;BME280;34640;53.590;10.054;2023-02-01T11:41:12;100293.56;;;5.84;100.00
48824;BME280;34640;53.590;10.054;2023-02-01T11:43:55;100276.28;;;5.95;100.00
48824;BME280;34640;53.590;10.054;2023-02-01T11:46:32;100274.69;;;6.08;100.00
48824;BME280;34640;53.590;10.054;2023-02-01T11:49:18;100260.38;;;6.13;100.00
48824;BME280;34640;53.590;10.054;2023-02-01T11:52:03;100266.38;;;6.26;100.00
48824;BME280;34640;53.590;10.054;2023-02-01T11:54:54;100250.06;;;6.27;100.00
48824;BME280;34640;53.590;10.054;2023-02-01T11:57:42;100260.75;;;6.31;100.00
48824;BME280;34640;53.590;10.054;2023-02-01T12:00:31;100257.53;;;6.22;100.00
48824;BME280;34640;53.590;10.054;2023-02-01T12:03:34;100249.47;;;6.18;100.00
48824;BME280;34640;53.590;10.054;2023-02-01T12:06:18;100247.97;;;6.21;100.00
48824;BME280;34640;53.590;10.054;2023-02-01T12:09:06;100246.25;;;6.08;100.00
48824;BME280;34640;53.590;10.054;2023-02-01T12:11:50;100245.66;;;6.12;100.00
48824;BME280;34640;53.590;10.054;2023-02-01T12:14:39;100239.69;;;6.13;100.00
48824;BME280;34640;53.590;10.054;2023-02-01T12:17:33;100241.63;;;6.04;100.00
48824;BME280;34640;53.590;10.054;2023-02-01T12:20:28;100245.72;;;5.89;100.00
48824;BME280;34640;53.590;10.054;2023-02-01T12:23:18;100245.38;;;5.84;100.00
48824;BME280;34640;53.590;10.054;2023-02-01T12:26:03;100244.38;;;5.82;100.00
48824;BME280;34640;53.590;10.054;2023-02-01T12:29:07;100242.75;;;5.71;100.00
48824;BME280;34640;53.590;10.054;2023-02-01T12:31:57;100220.31;;;5.70;100.00
48824;BME280;34640;53.590;10.054;2023-02-01T12:34:45;100263.53;;;5.61;100.00
48824;BME280;34640;53.590;10.054;2023-02-01T12:37:32;100259.06;;;5.59;100.00
48824;BME280;34640;53.590;10.054;2023-02-01T12:40:21;100274.13;;;5.52;100.00
48824;BME280;34640;53.590;10.054;2023-02-01T12:43:01;100280.19;;;5.41;100.00
48824;BME280;34640;53.590;10.054;2023-02-01T12:45:39;100275.84;;;5.29;100.00
48824;BME280;34640;53.590;10.054;2023-02-01T12:48:25;100278.56;;;5.07;100.00
48824;BME280;34640;53.590;10.054;2023-02-01T12:51:02;100276.06;;;4.97;100.00
48824;BME280;34640;53.590;10.054;2023-02-01T12:53:45;100267.00;;;5.02;100.00
48824;BME280;34640;53.590;10.054;2023-02-01T12:56:24;100296.50;;;5.05;100.00
48824;BME280;34640;53.590;10.054;2023-02-01T12:59:04;100272.59;;;4.96;100.00
48824;BME280;34640;53.590;10.054;2023-02-01T13:01:41;100267.69;;;4.99;100.00
48824;BME280;34640;53.590;10.054;2023-02-01T13:04:23;100253.31;;;4.79;100.00
48824;BME280;34640;53.590;10.054;2023-02-01T13:07:01;100267.75;;;4.89;100.00
48824;BME280;34640;53.590;10.054;2023-02-01T13:09:43;100249.25;;;4.95;100.00
48824;BME280;34640;53.590;10.054;2023-02-01T13:12:24;100255.69;;;5.00;100.00
48824;BME280;34640;53.590;10.054;2023-02-01T13:15:05;100262.63;;;5.01;100.00
48824;BME280;34640;53.590;10.054;2023-02-01T13:17:44;100248.94;;;5.02;100.00
48824;BME280;34640;53.590;10.054;2023-02-01T13:20:26;100251.84;;;5.06;100.00
48824;BME280;34640;53.590;10.054;2023-02-01T13:23:08;100239.91;;;5.20;100.00
48824;BME280;34640;53.590;10.054;2023-02-01T13:25:49;100234.44;;;5.27;100.00
48824;BME280;34640;53.590;10.054;2023-02-01T13:28:25;100242.72;;;5.46;100.00
48824;BME280;34640;53.590;10.054;2023-02-01T13:31:16;100242.97;;;5.63;100.00
48824;BME280;34640;53.590;10.054;2023-02-01T13:34:30;100241.91;;;5.84;100.00
48824;BME280;34640;53.590;10.054;2023-02-01T13:37:19;100242.94;;;5.86;100.00
48824;BME280;34640;53.590;10.054;2023-02-01T13:40:11;100245.38;;;5.84;100.00
48824;BME280;34640;53.590;10.054;2023-02-01T13:42:55;100246.28;;;5.97;100.00
48824;BME280;34640;53.590;10.054;2023-02-01T13:45:32;100251.63;;;6.11;100.00